This is the latest recevied weather packets stored in our database for station/object 9M4GIK-2. If no packets are shown the sender has not sent any weather packets the latest 10 day(s).
| Time | Temp. | Humidity | Pressure | Rain* | Wind** | Luminosity | Snow |
|---|---|---|---|---|---|---|---|
| 1778127831 | 32.78° C | 54% | 1006 hPa | - | - | - | - |
| 1778126932 | 32.78° C | 53% | 1006 hPa | - | - | - | - |
| 1778126031 | 32.22° C | 54% | 1006.1 hPa | - | - | - | - |
| 1778125130 | 32.22° C | 53% | 1006.2 hPa | - | - | - | - |
| 1778124230 | 33.33° C | 52% | 1006.1 hPa | - | - | - | - |
| 1778123330 | 35° C | 51% | 1006.3 hPa | - | - | - | - |
| 1778122430 | 32.22° C | 54% | 1006.5 hPa | - | - | - | - |
| 1778121530 | 32.22° C | 55% | 1006.5 hPa | - | - | - | - |
| 1778120630 | 32.22° C | 54% | 1006.6 hPa | - | - | - | - |
| 1778119730 | 32.22° C | 54% | 1006.6 hPa | - | - | - | - |
| 1778118830 | 32.22° C | 54% | 1006.6 hPa | - | - | - | - |
| 1778117930 | 31.67° C | 54% | 1006.5 hPa | - | - | - | - |
| 1778117029 | 31.67° C | 54% | 1006.3 hPa | - | - | - | - |
| 1778116129 | 31.67° C | 54% | 1006.3 hPa | - | - | - | - |
| 1778115229 | 31.67° C | 54% | 1006.1 hPa | - | - | - | - |
| 1778114329 | 32.22° C | 52% | 1006 hPa | - | - | - | - |
| 1778113429 | 31.67° C | 52% | 1005.8 hPa | - | - | - | - |
| 1778112527 | 32.22° C | 51% | 1005.5 hPa | - | - | - | - |
| 1778111627 | 31.67° C | 52% | 1005.3 hPa | - | - | - | - |
| 1778110727 | 32.22° C | 52% | 1005.3 hPa | - | - | - | - |
| 1778109827 | 32.22° C | 54% | 1005 hPa | - | - | - | - |
| 1778108927 | 32.22° C | 55% | 1005 hPa | - | - | - | - |
| 1778108026 | 31.67° C | 55% | 1004.8 hPa | - | - | - | - |
| 1778107126 | 31.67° C | 55% | 1004.7 hPa | - | - | - | - |
| 1778106226 | 31.67° C | 54% | 1004.7 hPa | - | - | - | - |
* Rain since midnight (hover to see other rain measurements)
** Current wind speed in m/s (hover to see current wind gust speed)